createdAt,value
2019-05-12T00:00:07.895Z,7.6047
2019-05-12T00:00:18.251Z,7.5845
2019-05-12T00:00:28.593Z,7.5845
2019-05-12T00:00:35.634Z,7.5845
2019-05-12T00:00:48.352Z,7.6047
2019-05-12T00:00:58.425Z,7.6047
2019-05-12T00:01:08.632Z,7.6047
2019-05-12T00:01:18.695Z,7.6047
2019-05-12T00:01:28.497Z,7.6047
2019-05-12T00:01:36.271Z,7.6147
2019-05-12T00:01:48.098Z,7.6147
2019-05-12T00:01:55.749Z,7.6047
2019-05-12T00:02:07.595Z,7.6147
2019-05-12T00:02:17.854Z,7.6147
2019-05-12T00:02:25.471Z,7.6147
2019-05-12T00:02:35.759Z,7.6147
2019-05-12T00:02:48.453Z,7.6147
2019-05-12T00:02:59.096Z,7.6147
2019-05-12T00:03:08.564Z,7.6047
2019-05-12T00:03:18.853Z,7.6047
2019-05-12T00:03:27.649Z,7.6147
2019-05-12T00:03:47.981Z,7.6349
2019-05-12T00:03:58.107Z,7.6349
2019-05-12T00:04:08.091Z,7.6349
2019-05-12T00:04:16.030Z,7.6450
2019-05-12T00:04:28.054Z,7.6450
2019-05-12T00:04:35.647Z,7.6651
2019-05-12T00:04:48.830Z,7.6450
2019-05-12T00:04:58.256Z,7.6651
2019-05-12T00:05:05.839Z,7.6651
2019-05-12T00:05:18.518Z,7.6651
2019-05-12T00:05:27.985Z,7.6651
2019-05-12T00:05:35.636Z,7.6752
2019-05-12T00:05:48.307Z,7.6651
2019-05-12T00:05:57.784Z,7.6450
2019-05-12T00:06:05.438Z,7.6450
2019-05-12T00:06:17.679Z,7.6651
2019-05-12T00:06:28.465Z,7.6450
2019-05-12T00:06:38.756Z,7.6450
2019-05-12T00:06:47.852Z,7.6651
2019-05-12T00:06:58.378Z,7.6651
2019-05-12T00:07:08.556Z,7.6651
2019-05-12T00:07:18.050Z,7.6651
2019-05-12T00:07:25.716Z,7.6450
2019-05-12T00:07:37.940Z,7.6651
2019-05-12T00:07:48.384Z,7.6852
2019-05-12T00:07:58.943Z,7.6651
2019-05-12T00:08:08.302Z,7.6752
2019-05-12T00:08:18.697Z,7.6450
2019-05-12T00:08:27.752Z,7.6752
2019-05-12T00:08:38.140Z,7.6651
2019-05-12T00:08:45.784Z,7.6450
2019-05-12T00:08:57.844Z,7.6651
2019-05-12T00:09:05.524Z,7.6651
2019-05-12T00:09:18.636Z,7.6651
2019-05-12T00:09:28.267Z,7.6651
2019-05-12T00:09:38.677Z,7.6651
2019-05-12T00:09:47.961Z,7.6651
2019-05-12T00:09:58.126Z,7.6651
2019-05-12T00:10:05.711Z,7.6651
2019-05-12T00:10:17.787Z,7.6450
2019-05-12T00:10:25.530Z,7.6450
2019-05-12T00:10:38.521Z,7.6450
2019-05-12T00:10:47.858Z,7.6651
2019-05-12T00:10:55.441Z,7.6450
2019-05-12T00:11:08.940Z,7.6651
2019-05-12T00:11:17.958Z,7.6651
2019-05-12T00:11:25.580Z,7.6651
2019-05-12T00:11:37.874Z,7.6450
2019-05-12T00:11:45.570Z,7.6450
2019-05-12T00:11:59.053Z,7.6651
2019-05-12T00:12:08.249Z,7.6349
2019-05-12T00:12:15.847Z,7.6651
2019-05-12T00:12:27.645Z,7.6450
2019-05-12T00:12:35.363Z,7.6450
2019-05-12T00:12:48.284Z,7.6450
2019-05-12T00:12:58.179Z,7.6450
2019-05-12T00:13:08.156Z,7.6651
2019-05-12T00:13:15.971Z,7.6651
2019-05-12T00:13:27.844Z,7.6651
2019-05-12T00:13:35.597Z,7.6450
2019-05-12T00:13:47.903Z,7.6450
2019-05-12T00:13:58.617Z,7.6450
2019-05-12T00:14:08.567Z,7.6651
2019-05-12T00:14:17.847Z,7.6450
2019-05-12T00:14:25.499Z,7.6450
2019-05-12T00:15:05.230Z,7.6349
2019-05-12T00:15:28.808Z,7.6349
2019-05-12T00:15:31.975Z,7.6147
2019-05-12T00:15:38.522Z,7.6349
2019-05-12T00:15:47.627Z,7.6349
2019-05-12T00:15:58.311Z,7.6349
2019-05-12T00:16:08.610Z,7.6349
2019-05-12T00:16:17.694Z,7.6349
2019-05-12T00:16:28.337Z,7.6349
2019-05-12T00:16:38.344Z,7.6349
2019-05-12T00:16:48.938Z,7.6450
2019-05-12T00:16:58.010Z,7.6450
2019-05-12T00:17:08.094Z,7.6349
2019-05-12T00:17:15.777Z,7.6349
2019-05-12T00:17:28.325Z,7.6147
2019-05-12T00:17:35.998Z,7.6147
2019-05-12T00:17:48.074Z,7.6047
2019-05-12T00:17:58.399Z,7.6147
2019-05-12T00:18:09.114Z,7.6047
2019-05-12T00:18:18.073Z,7.6047
2019-05-12T00:18:25.756Z,7.5745
2019-05-12T00:18:37.626Z,7.5845
2019-05-12T00:18:45.392Z,7.6047
2019-05-12T00:18:58.615Z,7.5845
2019-05-12T00:19:06.310Z,7.5845
2019-05-12T00:19:17.922Z,7.5745
2019-05-12T00:19:25.687Z,7.5745
2019-05-12T00:19:37.654Z,7.5745
2019-05-12T00:19:48.000Z,7.5745
2019-05-12T00:19:58.350Z,7.5745
2019-05-12T00:20:08.337Z,7.5745
2019-05-12T00:20:18.076Z,7.5543
2019-05-12T00:20:28.154Z,7.5745
2019-05-12T00:20:35.995Z,7.5543
2019-05-12T00:20:47.668Z,7.5543
2019-05-12T00:20:57.970Z,7.5745
2019-05-12T00:21:05.565Z,7.5543
2019-05-12T00:21:28.279Z,7.5342
2019-05-12T00:21:39.213Z,7.5241
2019-05-12T00:21:48.284Z,7.5241
2019-05-12T00:21:56.019Z,7.5342
2019-05-12T00:22:07.656Z,7.5241
2019-05-12T00:22:28.540Z,7.5040
2019-05-12T00:22:38.119Z,7.5040
2019-05-12T00:22:45.729Z,7.5040
2019-05-12T00:22:58.026Z,7.5040
2019-05-12T00:23:19.920Z,7.5040
2019-05-12T00:23:26.686Z,7.5040
2019-05-12T00:23:28.750Z,7.4838
2019-05-12T00:23:38.202Z,7.5040
2019-05-12T00:23:47.639Z,7.5040
2019-05-12T00:23:58.248Z,7.5040
2019-05-12T00:24:07.932Z,7.5040
2019-05-12T00:24:18.613Z,7.5040
2019-05-12T00:24:28.019Z,7.5040
2019-05-12T00:24:35.665Z,7.5040
2019-05-12T00:24:47.752Z,7.5040
2019-05-12T00:24:55.464Z,7.4939
2019-05-12T00:25:08.827Z,7.5040
2019-05-12T00:25:18.163Z,7.4939
2019-05-12T00:25:28.128Z,7.4939
2019-05-12T00:25:35.924Z,7.4939
2019-05-12T00:25:47.665Z,7.5040
2019-05-12T00:25:55.605Z,7.4939
2019-05-12T00:26:07.832Z,7.4939
2019-05-12T00:26:15.501Z,7.4939
2019-05-12T00:26:28.297Z,7.4939
2019-05-12T00:26:38.173Z,7.4838
2019-05-12T00:26:47.811Z,7.4838
2019-05-12T00:26:55.395Z,7.4838
2019-05-12T00:27:08.511Z,7.4637
2019-05-12T00:27:17.849Z,7.4838
2019-05-12T00:27:25.563Z,7.4536
2019-05-12T00:27:38.815Z,7.4637
2019-05-12T00:27:48.620Z,7.4536
2019-05-12T00:27:58.546Z,7.4234
2019-05-12T00:28:25.675Z,7.4234
2019-05-12T00:28:37.566Z,7.4335
2019-05-12T00:28:48.220Z,7.4234
2019-05-12T00:28:55.838Z,7.4335
2019-05-12T00:29:07.685Z,7.4033
2019-05-12T00:29:15.410Z,7.4234
2019-05-12T00:29:28.635Z,7.4033
2019-05-12T00:29:37.877Z,7.4033
2019-05-12T00:29:45.404Z,7.4234
2019-05-12T00:30:09.661Z,7.4033
2019-05-12T00:30:18.413Z,7.4033
2019-05-12T00:30:27.714Z,7.4033
2019-05-12T00:30:38.889Z,7.3932
2019-05-12T00:30:48.676Z,7.3932
2019-05-12T00:30:58.069Z,7.3932
2019-05-12T00:31:08.239Z,7.3932
2019-05-12T00:31:15.936Z,7.3932
2019-05-12T00:31:27.996Z,7.3932
2019-05-12T00:31:35.662Z,7.3932
2019-05-12T00:31:58.032Z,7.4033
2019-05-12T00:32:05.726Z,7.3932
2019-05-12T00:32:17.813Z,7.3932
2019-05-12T00:32:28.078Z,7.3932
2019-05-12T00:32:38.437Z,7.3730
2019-05-12T00:32:58.029Z,7.3730
2019-05-12T00:33:05.650Z,7.3529
2019-05-12T00:33:28.220Z,7.3529
2019-05-12T00:33:35.892Z,7.3529
2019-05-12T00:33:47.602Z,7.3529
2019-05-12T00:33:55.591Z,7.3529
2019-05-12T00:34:07.855Z,7.3730
2019-05-12T00:34:15.392Z,7.3529
2019-05-12T00:34:28.870Z,7.3529
2019-05-12T00:34:38.497Z,7.3730
2019-05-12T00:34:48.050Z,7.3730
2019-05-12T00:34:55.694Z,7.3529
2019-05-12T00:35:07.660Z,7.3730
2019-05-12T00:35:15.475Z,7.3730
2019-05-12T00:35:28.483Z,7.4234
2019-05-12T00:35:38.102Z,7.3932
2019-05-12T00:35:48.128Z,7.4033
2019-05-12T00:36:07.992Z,7.4033
2019-05-12T00:36:15.652Z,7.4234
2019-05-12T00:36:29.289Z,7.4234
2019-05-12T00:36:37.980Z,7.4234
2019-05-12T00:36:45.611Z,7.4234
2019-05-12T00:36:57.805Z,7.4234
2019-05-12T00:37:05.386Z,7.4335
2019-05-12T00:37:25.899Z,7.4335
2019-05-12T00:37:39.858Z,7.4335
2019-05-12T00:37:45.575Z,7.4536
2019-05-12T00:37:57.760Z,7.4335
2019-05-12T00:38:05.364Z,7.4536
2019-05-12T00:38:27.835Z,7.4536
2019-05-12T00:38:35.459Z,7.4637
2019-05-12T00:38:48.526Z,7.4335
2019-05-12T00:38:58.016Z,7.4335
2019-05-12T00:39:08.547Z,7.4536
2019-05-12T00:39:27.872Z,7.4637
2019-05-12T00:39:35.548Z,7.4838
2019-05-12T00:39:47.921Z,7.4939
2019-05-12T00:39:58.177Z,7.4939
2019-05-12T00:40:05.784Z,7.4939
2019-05-12T00:40:15.452Z,7.5040
2019-05-12T00:40:28.069Z,7.5241
2019-05-12T00:40:35.675Z,7.5241
2019-05-12T00:40:47.695Z,7.5040
2019-05-12T00:40:55.474Z,7.5241
2019-05-12T00:41:08.729Z,7.5040
2019-05-12T00:41:28.262Z,7.5040
2019-05-12T00:41:44.376Z,7.5040
2019-05-12T00:41:48.383Z,7.5040
2019-05-12T00:41:58.488Z,7.5241
2019-05-12T00:42:07.791Z,7.5040
2019-05-12T00:42:15.412Z,7.5241
2019-05-12T00:42:30.455Z,7.4838
2019-05-12T00:42:48.420Z,7.5040
2019-05-12T00:42:57.743Z,7.5040
2019-05-12T00:43:05.441Z,7.4838
2019-05-12T00:43:27.930Z,7.4838
2019-05-12T00:43:38.124Z,7.4637
2019-05-12T00:43:45.760Z,7.4838
2019-05-12T00:43:55.453Z,7.4838
2019-05-12T00:44:08.805Z,7.4637
2019-05-12T00:44:36.111Z,7.4838
2019-05-12T00:44:47.739Z,7.4838
2019-05-12T00:44:55.435Z,7.4939
2019-05-12T00:45:08.095Z,7.4838
2019-05-12T00:45:29.165Z,7.4637
2019-05-12T00:45:38.589Z,7.4637
2019-05-12T00:45:48.250Z,7.4637
2019-05-12T00:45:55.902Z,7.4637
2019-05-12T00:46:07.818Z,7.4536
2019-05-12T00:46:27.939Z,7.4536
2019-05-12T00:46:35.555Z,7.4536
2019-05-12T00:46:48.799Z,7.4536
2019-05-12T00:46:57.714Z,7.4335
2019-05-12T00:47:08.202Z,7.4536
2019-05-12T00:47:25.485Z,7.4536
2019-05-12T00:47:38.926Z,7.4335
2019-05-12T00:47:47.964Z,7.4536
2019-05-12T00:47:57.789Z,7.4335
2019-05-12T00:48:08.738Z,7.4234
2019-05-12T00:48:17.916Z,7.4335
2019-05-12T00:48:25.527Z,7.4335
2019-05-12T00:48:37.645Z,7.4335
2019-05-12T00:48:48.219Z,7.4335
2019-05-12T00:48:58.393Z,7.4234
2019-05-12T00:49:07.968Z,7.4335
2019-05-12T00:49:15.704Z,7.4335
2019-05-12T00:49:26.187Z,7.4234
2019-05-12T00:49:37.921Z,7.4234
2019-05-12T00:49:45.503Z,7.4234
2019-05-12T00:49:58.380Z,7.4234
2019-05-12T00:50:08.120Z,7.4234
2019-05-12T00:50:18.309Z,7.4335
2019-05-12T00:50:26.018Z,7.4335
2019-05-12T00:50:37.986Z,7.4335
2019-05-12T00:50:48.580Z,7.4335
2019-05-12T00:50:58.208Z,7.4536
2019-05-12T00:51:07.796Z,7.4335
2019-05-12T00:51:15.556Z,7.4335
2019-05-12T00:51:25.509Z,7.4335
2019-05-12T00:51:38.376Z,7.4335
2019-05-12T00:51:48.376Z,7.4335
2019-05-12T00:51:56.144Z,7.4335
2019-05-12T00:52:07.958Z,7.4335
2019-05-12T00:52:15.665Z,7.4234
2019-05-12T00:52:28.147Z,7.4335
2019-05-12T00:52:37.968Z,7.4335
2019-05-12T00:52:46.038Z,7.4335
2019-05-12T00:52:58.010Z,7.4335
2019-05-12T00:53:08.605Z,7.4234
2019-05-12T00:53:18.853Z,7.4335
2019-05-12T00:53:42.726Z,7.4335
2019-05-12T00:53:47.903Z,7.4335
2019-05-12T00:53:55.495Z,7.4335
2019-05-12T00:54:09.086Z,7.4335
2019-05-12T00:54:17.825Z,7.4335
2019-05-12T00:54:25.470Z,7.4536
2019-05-12T00:54:37.637Z,7.4335
2019-05-12T00:54:58.565Z,7.4335
2019-05-12T00:55:07.945Z,7.4536
2019-05-12T00:55:18.276Z,7.4234
2019-05-12T00:55:28.785Z,7.4536
2019-05-12T00:55:37.828Z,7.4536
2019-05-12T00:55:47.603Z,7.4536
2019-05-12T00:55:57.952Z,7.4335
2019-05-12T00:56:05.525Z,7.4536
2019-05-12T00:56:17.784Z,7.4637
2019-05-12T00:56:28.498Z,7.4536
2019-05-12T00:56:48.021Z,7.4335
2019-05-12T00:56:58.548Z,7.4536
2019-05-12T00:57:07.793Z,7.4536
2019-05-12T00:57:15.430Z,7.4536
2019-05-12T00:57:28.630Z,7.4536
2019-05-12T00:57:38.298Z,7.4637
2019-05-12T00:57:48.020Z,7.4536
2019-05-12T00:57:58.109Z,7.4335
2019-05-12T00:58:08.261Z,7.4335
2019-05-12T00:58:19.581Z,7.4335
2019-05-12T00:58:27.758Z,7.4335
2019-05-12T00:58:35.672Z,7.4234
2019-05-12T00:58:48.785Z,7.4335
2019-05-12T00:58:58.012Z,7.4234
2019-05-12T00:59:08.117Z,7.4335
2019-05-12T00:59:15.914Z,7.4033
2019-05-12T00:59:27.806Z,7.4335
2019-05-12T00:59:35.491Z,7.4335
2019-05-12T00:59:47.780Z,7.4234
2019-05-12T00:59:58.216Z,7.4335
2019-05-12T01:00:05.814Z,7.4335
2019-05-12T01:00:17.732Z,7.4335
2019-05-12T01:00:25.448Z,7.4234
2019-05-12T01:00:40.462Z,7.4234
2019-05-12T01:00:48.296Z,7.4234
2019-05-12T01:01:08.192Z,7.4335
2019-05-12T01:01:18.405Z,7.3227
2019-05-12T01:01:27.998Z,7.4234
2019-05-12T01:01:37.996Z,7.4234
2019-05-12T01:01:48.042Z,7.4335
2019-05-12T01:01:55.752Z,7.4234
2019-05-12T01:02:07.843Z,7.4234
2019-05-12T01:02:15.596Z,7.4234
2019-05-12T01:02:28.656Z,7.4335
2019-05-12T01:02:37.947Z,7.4335
2019-05-12T01:02:45.631Z,7.4234
2019-05-12T01:02:58.336Z,7.4234
2019-05-12T01:03:08.418Z,7.4234
2019-05-12T01:03:15.878Z,7.4335
2019-05-12T01:03:27.969Z,7.4033
2019-05-12T01:03:38.198Z,7.4234
2019-05-12T01:03:48.377Z,7.4335
2019-05-12T01:03:57.952Z,7.4234
2019-05-12T01:04:08.887Z,7.4234
2019-05-12T01:04:17.565Z,7.4335
2019-05-12T01:04:38.112Z,7.4234
2019-05-12T01:04:48.716Z,7.4033
2019-05-12T01:04:58.108Z,7.4234
2019-05-12T01:05:05.778Z,7.4033
2019-05-12T01:05:17.589Z,7.4033
2019-05-12T01:05:26.347Z,7.4234
2019-05-12T01:05:38.396Z,7.4033
2019-05-12T01:05:48.566Z,7.4033
2019-05-12T01:05:57.738Z,7.4033
2019-05-12T01:06:05.459Z,7.4033
2019-05-12T01:06:17.809Z,7.4033
2019-05-12T01:06:25.477Z,7.3730
2019-05-12T01:06:38.733Z,7.3932
2019-05-12T01:06:48.680Z,7.4033
2019-05-12T01:06:58.273Z,7.3730
2019-05-12T01:07:05.890Z,7.3932
2019-05-12T01:07:18.372Z,7.3730
2019-05-12T01:07:27.739Z,7.3730
2019-05-12T01:07:38.056Z,7.3932
2019-05-12T01:07:48.261Z,7.3932
2019-05-12T01:07:58.340Z,7.3529
2019-05-12T01:08:08.477Z,7.3730
2019-05-12T01:08:18.667Z,7.3730
2019-05-12T01:08:27.875Z,7.3529
2019-05-12T01:08:38.324Z,7.3529
2019-05-12T01:08:45.978Z,7.3428
2019-05-12T01:08:57.784Z,7.3428
2019-05-12T01:09:05.451Z,7.3529
2019-05-12T01:09:17.717Z,7.3730
2019-05-12T01:09:28.161Z,7.3730
2019-05-12T01:09:35.832Z,7.3730
2019-05-12T01:09:45.483Z,7.3529
2019-05-12T01:09:58.074Z,7.3428
2019-05-12T01:10:08.456Z,7.3428
2019-05-12T01:10:17.945Z,7.3529
2019-05-12T01:10:28.586Z,7.3227
2019-05-12T01:10:38.587Z,7.3227
2019-05-12T01:10:47.912Z,7.3227
2019-05-12T01:10:55.544Z,7.3227
2019-05-12T01:11:18.470Z,7.3227
2019-05-12T01:11:37.832Z,7.3428
2019-05-12T01:11:45.541Z,7.3428
2019-05-12T01:11:58.762Z,7.3730
2019-05-12T01:12:07.957Z,7.3529
2019-05-12T01:12:15.548Z,7.3730
2019-05-12T01:12:28.584Z,7.3932
2019-05-12T01:12:38.217Z,7.3730
2019-05-12T01:12:48.510Z,7.3932
2019-05-12T01:12:58.159Z,7.3932
2019-05-12T01:13:08.272Z,7.3730
2019-05-12T01:13:18.419Z,7.3932
2019-05-12T01:13:27.940Z,7.3932
2019-05-12T01:13:35.661Z,7.4033
2019-05-12T01:13:46.009Z,7.3932
2019-05-12T01:13:58.295Z,7.3932
2019-05-12T01:14:08.626Z,7.3932
2019-05-12T01:14:18.712Z,7.3730
2019-05-12T01:14:27.876Z,7.3932
2019-05-12T01:14:35.499Z,7.3932
2019-05-12T01:14:58.025Z,7.3932
2019-05-12T01:15:07.509Z,7.3932
2019-05-12T01:15:17.822Z,7.4033
2019-05-12T01:15:25.439Z,7.4033
2019-05-12T01:15:37.965Z,7.3932
2019-05-12T01:15:45.609Z,7.3932
2019-05-12T01:15:58.675Z,7.4234
2019-05-12T01:16:08.097Z,7.4234
2019-05-12T01:16:15.767Z,7.4033
2019-05-12T01:16:25.477Z,7.4033
2019-05-12T01:16:48.610Z,7.4033
2019-05-12T01:16:57.917Z,7.4033
2019-05-12T01:17:05.513Z,7.4033
2019-05-12T01:17:17.815Z,7.3932
2019-05-12T01:17:25.379Z,7.3932
2019-05-12T01:17:35.851Z,7.3932
2019-05-12T01:17:47.658Z,7.3932
2019-05-12T01:17:55.377Z,7.3529
2019-05-12T01:18:09.462Z,7.3428
2019-05-12T01:18:18.363Z,7.3227
2019-05-12T01:18:27.658Z,7.3126
2019-05-12T01:18:38.512Z,7.3428
2019-05-12T01:18:48.009Z,7.3428
2019-05-12T01:18:55.618Z,7.3529
2019-05-12T01:19:08.066Z,7.3529
2019-05-12T01:19:18.350Z,7.3932
2019-05-12T01:19:28.633Z,7.3730
2019-05-12T01:19:37.471Z,7.3932
2019-05-12T01:19:45.637Z,7.4033
2019-05-12T01:19:58.394Z,7.3932
2019-05-12T01:20:08.672Z,7.4033
2019-05-12T01:20:17.877Z,7.3932
2019-05-12T01:20:28.017Z,7.4033
2019-05-12T01:20:38.744Z,7.4033
2019-05-12T01:20:47.940Z,7.4234
2019-05-12T01:20:55.603Z,7.4234
2019-05-12T01:21:07.862Z,7.4234
2019-05-12T01:21:15.445Z,7.4234
2019-05-12T01:21:37.736Z,7.4335
2019-05-12T01:21:45.439Z,7.4335
2019-05-12T01:21:58.796Z,7.4335
2019-05-12T01:22:18.688Z,7.4637
2019-05-12T01:22:27.744Z,7.4838
2019-05-12T01:22:35.367Z,7.4939
2019-05-12T01:22:50.420Z,7.4939
2019-05-12T01:22:57.915Z,7.4939
2019-05-12T01:23:08.549Z,7.4838
2019-05-12T01:23:28.123Z,7.4939
2019-05-12T01:23:35.764Z,7.4838
2019-05-12T01:23:56.388Z,7.4838
2019-05-12T01:24:02.703Z,7.4838
2019-05-12T01:24:08.805Z,7.4939
2019-05-12T01:24:18.531Z,7.5040
2019-05-12T01:24:28.207Z,7.5241
2019-05-12T01:24:37.896Z,7.4939
2019-05-12T01:24:48.200Z,7.4939
2019-05-12T01:24:57.844Z,7.4939
2019-05-12T01:25:05.606Z,7.4838
2019-05-12T01:25:17.594Z,7.4939
2019-05-12T01:25:25.515Z,7.4838
2019-05-12T01:25:39.612Z,7.4637
2019-05-12T01:25:58.546Z,7.4838
2019-05-12T01:26:08.661Z,7.4838
2019-05-12T01:26:17.858Z,7.4637
2019-05-12T01:26:28.325Z,7.4637
2019-05-12T01:26:38.560Z,7.4838
2019-05-12T01:26:47.648Z,7.4838
2019-05-12T01:26:58.181Z,7.4637
2019-05-12T01:27:05.905Z,7.4536
2019-05-12T01:27:17.968Z,7.4637
2019-05-12T01:27:25.675Z,7.4536
2019-05-12T01:27:37.873Z,7.4637
2019-05-12T01:27:48.244Z,7.4637
2019-05-12T01:27:58.607Z,7.4637
2019-05-12T01:28:07.948Z,7.4335
2019-05-12T01:28:18.377Z,7.4536
2019-05-12T01:28:27.824Z,7.4335
2019-05-12T01:28:35.496Z,7.4335
2019-05-12T01:28:48.799Z,7.4234
2019-05-12T01:28:58.017Z,7.4234
2019-05-12T01:29:05.667Z,7.4234
2019-05-12T01:29:17.788Z,7.4033
2019-05-12T01:29:25.404Z,7.4033
2019-05-12T01:29:38.537Z,7.4033
2019-05-12T01:29:48.083Z,7.4033
2019-05-12T01:29:58.014Z,7.3932
2019-05-12T01:30:05.609Z,7.4033
2019-05-12T01:30:18.108Z,7.3730
2019-05-12T01:30:28.167Z,7.3932
2019-05-12T01:30:36.024Z,7.3730
2019-05-12T01:30:47.896Z,7.3529
2019-05-12T01:30:55.556Z,7.3529
2019-05-12T01:31:08.439Z,7.3227
2019-05-12T01:31:18.052Z,7.3126
2019-05-12T01:31:25.624Z,7.3026
2019-05-12T01:31:40.765Z,7.2824
2019-05-12T01:31:48.626Z,7.2824
2019-05-12T01:31:58.580Z,7.2824
2019-05-12T01:32:07.871Z,7.2522
2019-05-12T01:32:15.598Z,7.2723
2019-05-12T01:32:38.270Z,7.2321
2019-05-12T01:32:45.879Z,7.2321
2019-05-12T01:32:57.456Z,7.2321
2019-05-12T01:33:08.534Z,7.2321
2019-05-12T01:33:18.429Z,7.2321
2019-05-12T01:33:27.770Z,7.2321
2019-05-12T01:33:38.097Z,7.2119
2019-05-12T01:33:48.594Z,7.2321
2019-05-12T01:33:58.443Z,7.2321
2019-05-12T01:34:08.074Z,7.2321
2019-05-12T01:34:15.750Z,7.2321
2019-05-12T01:34:27.603Z,7.2522
2019-05-12T01:34:35.376Z,7.2321
2019-05-12T01:34:48.208Z,7.2421
2019-05-12T01:34:57.782Z,7.2421
2019-05-12T01:35:05.370Z,7.2421
2019-05-12T01:35:28.126Z,7.2421
2019-05-12T01:35:38.425Z,7.2522
2019-05-12T01:35:52.286Z,7.2522
2019-05-12T01:35:58.684Z,7.2723
2019-05-12T01:36:07.945Z,7.2723
2019-05-12T01:36:15.581Z,7.2723
2019-05-12T01:36:28.620Z,7.2723
2019-05-12T01:36:38.102Z,7.2723
2019-05-12T01:36:48.367Z,7.2824
2019-05-12T01:36:55.934Z,7.2824
2019-05-12T01:37:07.880Z,7.2824
2019-05-12T01:37:27.833Z,7.2723
2019-05-12T01:37:35.559Z,7.2723
2019-05-12T01:37:48.431Z,7.2522
2019-05-12T01:38:01.120Z,7.2723
2019-05-12T01:38:08.010Z,7.2723
2019-05-12T01:38:18.075Z,7.2723
2019-05-12T01:38:25.790Z,7.2824
2019-05-12T01:38:37.914Z,7.2824
2019-05-12T01:38:48.152Z,7.2824
2019-05-12T01:38:55.877Z,7.2824
2019-05-12T01:39:07.753Z,7.2723
2019-05-12T01:39:15.720Z,7.2522
2019-05-12T01:39:27.659Z,7.2723
2019-05-12T01:39:38.327Z,7.2522
2019-05-12T01:39:45.860Z,7.2421
2019-05-12T01:39:59.727Z,7.2119
2019-05-12T01:40:08.486Z,7.2018
2019-05-12T01:40:28.237Z,7.1616
2019-05-12T01:40:39.288Z,7.1515
2019-05-12T01:40:47.890Z,7.1515
2019-05-12T01:40:58.210Z,7.1213
2019-05-12T01:41:05.952Z,7.1011
2019-05-12T01:41:25.458Z,7.0709
2019-05-12T01:41:38.948Z,7.0609
2019-05-12T01:41:48.135Z,7.0306
2019-05-12T01:41:58.706Z,7.0306
2019-05-12T01:42:09.010Z,7.0306
2019-05-12T01:42:25.378Z,6.9904
2019-05-12T01:42:38.261Z,6.9803
2019-05-12T01:42:48.338Z,6.9803
2019-05-12T01:42:58.284Z,6.9702
2019-05-12T01:43:08.261Z,6.9501
2019-05-12T01:43:27.798Z,6.9400
2019-05-12T01:43:35.432Z,6.9501
2019-05-12T01:43:48.779Z,6.9400
2019-05-12T01:43:58.370Z,6.9199
2019-05-12T01:44:05.990Z,6.9098
2019-05-12T01:44:28.679Z,6.8896
2019-05-12T01:44:38.200Z,6.8796
2019-05-12T01:44:48.068Z,6.8796
2019-05-12T01:44:55.721Z,6.8796
2019-05-12T01:45:05.388Z,6.8796
2019-05-12T01:45:28.464Z,6.8796
2019-05-12T01:45:37.997Z,6.9098
2019-05-12T01:45:48.114Z,6.9098
2019-05-12T01:45:58.828Z,6.9199
2019-05-12T01:46:08.109Z,6.9400
2019-05-12T01:46:18.018Z,6.9501
2019-05-12T01:46:25.667Z,6.9702
2019-05-12T01:46:38.312Z,6.9904
2019-05-12T01:46:48.246Z,7.0206
2019-05-12T01:46:57.738Z,7.0206
2019-05-12T01:47:05.378Z,7.0206
2019-05-12T01:47:25.956Z,7.0206
2019-05-12T01:47:38.249Z,7.0206
2019-05-12T01:47:48.445Z,7.0306
2019-05-12T01:47:58.740Z,7.0306
2019-05-12T01:48:08.742Z,7.0508
2019-05-12T01:48:28.688Z,7.0508
2019-05-12T01:48:37.763Z,7.0911
2019-05-12T01:48:48.383Z,7.0911
2019-05-12T01:49:01.735Z,7.1213
2019-05-12T01:49:08.251Z,7.1213
2019-05-12T01:49:28.916Z,7.1515
2019-05-12T01:49:38.237Z,7.1515
2019-05-12T01:49:45.805Z,7.1515
2019-05-12T01:49:57.981Z,7.1515
2019-05-12T01:50:05.714Z,7.1313
2019-05-12T01:50:17.642Z,7.1515
2019-05-12T01:50:28.364Z,7.1515
2019-05-12T01:50:38.334Z,7.1313
2019-05-12T01:50:47.604Z,7.1515
2019-05-12T01:50:57.955Z,7.1515
2019-05-12T01:51:05.638Z,7.1515
2019-05-12T01:51:28.336Z,7.1515
2019-05-12T01:51:47.699Z,7.1616
2019-05-12T01:51:58.155Z,7.1616
2019-05-12T01:52:05.838Z,7.1716
2019-05-12T01:52:28.430Z,7.1515
2019-05-12T01:52:38.395Z,7.1515
2019-05-12T01:52:47.826Z,7.1313
2019-05-12T01:52:55.474Z,7.1313
2019-05-12T01:53:08.699Z,7.1313
2019-05-12T01:53:15.362Z,7.1313
2019-05-12T01:53:28.700Z,7.1313
2019-05-12T01:53:37.877Z,7.1313
2019-05-12T01:53:48.278Z,7.1213
2019-05-12T01:54:08.598Z,7.1213
2019-05-12T01:54:13.883Z,7.1011
2019-05-12T01:54:27.790Z,7.0911
2019-05-12T01:54:35.426Z,7.0911
2019-05-12T01:54:48.311Z,7.0911
2019-05-12T01:54:56.006Z,7.0911
2019-05-12T01:55:07.991Z,7.0709
2019-05-12T01:55:28.121Z,7.0609
2019-05-12T01:55:38.309Z,7.0609
2019-05-12T01:55:48.345Z,7.0609
2019-05-12T01:55:58.389Z,7.0609
2019-05-12T01:56:07.874Z,7.0609
2019-05-12T01:56:15.507Z,7.0609
2019-05-12T01:56:28.802Z,7.0609
2019-05-12T01:56:38.301Z,7.0609
2019-05-12T01:56:48.132Z,7.0609
2019-05-12T01:56:58.622Z,7.0609
2019-05-12T01:57:08.126Z,7.0709
2019-05-12T01:57:15.764Z,7.0911
2019-05-12T01:57:25.499Z,7.0911
2019-05-12T01:57:38.534Z,7.0911
2019-05-12T01:57:45.504Z,7.0709
2019-05-12T01:57:57.731Z,7.1011
2019-05-12T01:58:05.524Z,7.1011
2019-05-12T01:58:19.062Z,7.1011
2019-05-12T01:58:27.817Z,7.1011
2019-05-12T01:58:35.472Z,7.1011
2019-05-12T01:58:48.290Z,7.0911
2019-05-12T01:58:57.834Z,7.1213
2019-05-12T01:59:05.434Z,7.1011
2019-05-12T01:59:18.502Z,7.1011
2019-05-12T01:59:26.138Z,7.1011
2019-05-12T01:59:38.019Z,7.1213
2019-05-12T01:59:48.268Z,7.0911
2019-05-12T01:59:58.617Z,7.1011
2019-05-12T02:00:08.036Z,7.1011
2019-05-12T02:00:15.699Z,7.1011
2019-05-12T02:00:27.915Z,7.1213
2019-05-12T02:00:38.899Z,7.1011
2019-05-12T02:00:48.228Z,7.1011
2019-05-12T02:00:58.672Z,7.1011
2019-05-12T02:01:08.230Z,7.1213
2019-05-12T02:01:15.862Z,7.1011
2019-05-12T02:01:27.541Z,7.1011
2019-05-12T02:01:35.798Z,7.1011
2019-05-12T02:01:45.446Z,7.1011
2019-05-12T02:01:58.150Z,7.1213
2019-05-12T02:02:05.766Z,7.1011
2019-05-12T02:02:17.705Z,7.1011
2019-05-12T02:02:25.441Z,7.1213
2019-05-12T02:02:38.612Z,7.1011
2019-05-12T02:02:48.043Z,7.1011
2019-05-12T02:02:58.158Z,7.0911
2019-05-12T02:03:08.902Z,7.0911
2019-05-12T02:03:17.856Z,7.0911
2019-05-12T02:03:25.539Z,7.0609
2019-05-12T02:03:37.751Z,7.0911
2019-05-12T02:03:45.360Z,7.0609
2019-05-12T02:03:58.579Z,7.0508
2019-05-12T02:04:11.681Z,7.0306
2019-05-12T02:04:18.104Z,7.0306
2019-05-12T02:04:25.800Z,7.0206
2019-05-12T02:04:40.859Z,7.0206
2019-05-12T02:04:45.529Z,7.0206
2019-05-12T02:04:58.781Z,6.9803
2019-05-12T02:05:08.579Z,6.9904
2019-05-12T02:05:21.818Z,6.9904
2019-05-12T02:05:28.204Z,6.9904
2019-05-12T02:05:37.971Z,6.9803
2019-05-12T02:05:45.683Z,6.9803
2019-05-12T02:05:58.023Z,6.9702
2019-05-12T02:06:08.274Z,6.9501
2019-05-12T02:06:18.448Z,6.9702
2019-05-12T02:06:27.907Z,6.9400
2019-05-12T02:06:40.973Z,6.9199
2019-05-12T02:06:45.422Z,6.9199
2019-05-12T02:06:57.767Z,6.9098
2019-05-12T02:07:08.352Z,6.8896
2019-05-12T02:07:18.541Z,6.8796
2019-05-12T02:07:28.005Z,6.8695
2019-05-12T02:07:35.541Z,6.8796
2019-05-12T02:07:47.958Z,6.8695
2019-05-12T02:07:58.108Z,6.8393
2019-05-12T02:08:06.028Z,6.8393
2019-05-12T02:08:15.981Z,6.8091
2019-05-12T02:08:27.817Z,6.8091
2019-05-12T02:08:38.357Z,6.8091
2019-05-12T02:08:47.755Z,6.8091
2019-05-12T02:08:58.047Z,6.8393
2019-05-12T02:09:07.989Z,6.7084
2019-05-12T02:09:15.613Z,6.7990
2019-05-12T02:09:27.998Z,6.7889
2019-05-12T02:09:35.614Z,6.7889
2019-05-12T02:09:48.076Z,6.7688
2019-05-12T02:09:55.634Z,6.7587
2019-05-12T02:10:09.304Z,6.7386
2019-05-12T02:10:17.989Z,6.7386
2019-05-12T02:10:25.710Z,6.7285
2019-05-12T02:10:35.433Z,6.7084
2019-05-12T02:10:48.080Z,6.7084
2019-05-12T02:10:55.700Z,6.6983
2019-05-12T02:11:07.852Z,6.6882
2019-05-12T02:11:15.463Z,6.6681
2019-05-12T02:11:28.741Z,6.6681
2019-05-12T02:11:37.977Z,6.6681
2019-05-12T02:11:45.692Z,6.6580
2019-05-12T02:11:55.390Z,6.6379
2019-05-12T02:12:08.233Z,6.6077
2019-05-12T02:12:18.157Z,6.6077
2019-05-12T02:12:38.344Z,6.5775
2019-05-12T02:12:48.766Z,6.5573
2019-05-12T02:12:59.048Z,6.5372
2019-05-12T02:13:07.875Z,6.5372
2019-05-12T02:13:15.632Z,6.5170
2019-05-12T02:13:38.109Z,6.4868
2019-05-12T02:13:45.765Z,6.4767
2019-05-12T02:13:57.881Z,6.4566
2019-05-12T02:14:09.004Z,6.4365